createdAt,value
2024-01-01T00:01:10.635Z,33.40
2024-01-01T00:03:49.319Z,28.30
2024-01-01T00:06:17.869Z,29.00
2024-01-01T00:08:46.330Z,27.50
2024-01-01T00:11:14.799Z,28.00
2024-01-01T00:13:43.376Z,27.60
2024-01-01T00:16:11.802Z,28.20
2024-01-01T00:18:40.173Z,27.70
2024-01-01T00:21:11.672Z,27.30
2024-01-01T00:23:40.051Z,28.40
2024-01-01T00:26:08.526Z,22.20
2024-01-01T00:28:37.470Z,24.20
2024-01-01T00:31:05.984Z,24.10
2024-01-01T00:33:34.857Z,26.00
2024-01-01T00:36:03.602Z,31.40
2024-01-01T00:38:32.110Z,24.50
2024-01-01T00:41:00.486Z,27.20
2024-01-01T00:43:28.927Z,23.50
2024-01-01T00:45:57.354Z,27.10
2024-01-01T00:48:25.919Z,26.70
2024-01-01T00:50:54.537Z,27.70
2024-01-01T00:53:23.187Z,27.40
2024-01-01T00:55:51.635Z,18.40
2024-01-01T00:58:20.215Z,25.00
2024-01-01T01:00:48.597Z,23.40
2024-01-01T01:03:17.503Z,24.40
2024-01-01T01:05:46.144Z,24.10
2024-01-01T01:08:14.980Z,24.80
2024-01-01T01:10:43.441Z,26.20
2024-01-01T01:13:11.903Z,29.30
2024-01-01T01:15:40.273Z,20.80
2024-01-01T01:18:09.138Z,18.80
2024-01-01T01:20:38.031Z,25.90
2024-01-01T01:23:06.599Z,30.70
2024-01-01T01:25:35.302Z,20.00
2024-01-01T01:28:05.021Z,30.30
2024-01-01T01:30:33.789Z,24.40
2024-01-01T01:33:02.308Z,22.90
2024-01-01T01:35:30.856Z,30.30
2024-01-01T01:37:59.272Z,29.20
2024-01-01T01:40:27.815Z,28.60
2024-01-01T01:42:56.398Z,29.90
2024-01-01T01:45:26.278Z,32.60
2024-01-01T01:47:55.325Z,31.40
2024-01-01T01:50:24.131Z,26.10
2024-01-01T01:52:52.616Z,30.40
2024-01-01T01:55:23.620Z,31.10
2024-01-01T01:57:52.153Z,28.30
2024-01-01T02:00:21.638Z,31.10
2024-01-01T02:02:50.868Z,29.20
2024-01-01T02:05:19.821Z,27.80
2024-01-01T02:07:48.422Z,24.80
2024-01-01T02:10:16.841Z,22.80
2024-01-01T02:12:48.404Z,20.40
2024-01-01T02:15:16.769Z,26.80
2024-01-01T02:17:45.317Z,26.80
2024-01-01T02:20:18.925Z,30.00
2024-01-01T02:22:48.340Z,21.00
2024-01-01T02:25:17.571Z,26.20
2024-01-01T02:27:45.962Z,23.90
2024-01-01T02:30:14.490Z,20.20
2024-01-01T02:32:43.027Z,27.80
2024-01-01T02:35:11.602Z,30.40
2024-01-01T02:37:40.098Z,33.00
2024-01-01T02:40:09.993Z,27.60
2024-01-01T02:42:38.983Z,25.80
2024-01-01T02:45:08.641Z,32.90
2024-01-01T02:47:39.215Z,27.60
2024-01-01T02:50:08.181Z,36.00
2024-01-01T02:52:37.066Z,30.90
2024-01-01T02:55:06.130Z,30.60
2024-01-01T02:57:34.563Z,34.50
2024-01-01T03:00:03.277Z,29.70
2024-01-01T03:02:31.774Z,31.90
2024-01-01T03:05:00.331Z,34.00
2024-01-01T03:07:28.889Z,32.00
2024-01-01T03:09:57.326Z,34.70
2024-01-01T03:12:25.889Z,30.00
2024-01-01T03:14:54.370Z,34.80
2024-01-01T03:17:23.083Z,28.10
2024-01-01T03:19:52.019Z,25.70
2024-01-01T03:22:20.478Z,26.80
2024-01-01T03:24:48.878Z,32.10
2024-01-01T03:27:17.343Z,30.40
2024-01-01T03:29:46.423Z,36.40
2024-01-01T03:32:14.950Z,29.10
2024-01-01T03:34:44.487Z,30.40
2024-01-01T03:37:12.891Z,28.70
2024-01-01T03:39:41.340Z,25.50
2024-01-01T03:42:09.763Z,18.40
2024-01-01T03:44:38.268Z,28.30
2024-01-01T03:47:06.822Z,26.60
2024-01-01T03:49:35.719Z,27.00
2024-01-01T03:52:04.361Z,27.00
2024-01-01T03:54:32.737Z,27.70
2024-01-01T03:57:01.131Z,24.50
2024-01-01T03:59:29.700Z,25.90
2024-01-01T04:01:58.168Z,35.10
2024-01-01T04:04:26.601Z,27.10
2024-01-01T04:06:55.009Z,27.60
2024-01-01T04:09:23.377Z,24.30
2024-01-01T04:11:51.803Z,24.60
2024-01-01T04:14:20.343Z,25.20
2024-01-01T04:16:48.919Z,28.80
2024-01-01T04:19:17.465Z,32.70
2024-01-01T04:21:46.008Z,24.50
2024-01-01T04:24:14.396Z,24.60
2024-01-01T04:26:42.862Z,26.50
2024-01-01T04:29:11.679Z,26.60
2024-01-01T04:31:40.177Z,18.40
2024-01-01T04:34:08.592Z,31.30
2024-01-01T04:36:37.035Z,28.00
2024-01-01T04:39:05.431Z,24.50
2024-01-01T04:41:34.074Z,31.80
2024-01-01T04:44:02.999Z,29.80
2024-01-01T04:46:31.385Z,29.80
2024-01-01T04:48:59.921Z,23.70
2024-01-01T04:51:28.359Z,27.30
2024-01-01T04:53:56.841Z,33.70
2024-01-01T04:56:25.516Z,32.10
2024-01-01T04:58:55.540Z,33.20
2024-01-01T05:01:24.001Z,31.80
2024-01-01T05:03:52.456Z,25.10
2024-01-01T05:06:21.053Z,30.40
2024-01-01T05:08:49.555Z,33.40
2024-01-01T05:11:17.966Z,34.60
2024-01-01T05:13:46.430Z,35.20
2024-01-01T05:16:14.881Z,32.10
2024-01-01T05:18:43.394Z,30.00
2024-01-01T05:21:11.969Z,33.30
2024-01-01T05:23:40.424Z,26.30
2024-01-01T05:26:08.931Z,22.80
2024-01-01T05:28:38.197Z,26.20
2024-01-01T05:31:06.988Z,31.10
2024-01-01T05:33:37.283Z,31.50
2024-01-01T05:36:13.935Z,31.90
2024-01-01T05:38:42.801Z,33.10
2024-01-01T05:41:13.102Z,21.60
2024-01-01T05:43:41.663Z,22.00
2024-01-01T05:46:10.072Z,22.00
2024-01-01T05:48:41.111Z,20.70
2024-01-01T05:51:11.069Z,26.50
2024-01-01T05:53:39.599Z,25.20
2024-01-01T05:56:08.354Z,30.70
2024-01-01T05:58:36.897Z,30.80
2024-01-01T06:01:05.451Z,26.60
2024-01-01T06:03:33.948Z,17.30
2024-01-01T06:06:02.589Z,24.30
2024-01-01T06:08:31.166Z,21.80
2024-01-01T06:10:59.979Z,23.10
2024-01-01T06:13:28.596Z,22.60
2024-01-01T06:15:56.984Z,26.50
2024-01-01T06:18:26.697Z,26.00
2024-01-01T06:20:55.184Z,26.80
2024-01-01T06:23:23.606Z,24.60
2024-01-01T06:25:54.219Z,30.60
2024-01-01T06:28:22.669Z,22.80
2024-01-01T06:30:51.104Z,27.70
2024-01-01T06:33:19.639Z,25.30
2024-01-01T06:35:48.021Z,24.50
2024-01-01T06:38:17.178Z,26.50
2024-01-01T06:40:45.940Z,25.30
2024-01-01T06:43:14.378Z,24.50
2024-01-01T06:45:42.895Z,22.30
2024-01-01T06:48:12.954Z,21.50
2024-01-01T06:50:41.614Z,22.70
2024-01-01T06:53:10.099Z,23.50
2024-01-01T06:55:38.636Z,24.20
2024-01-01T06:58:07.356Z,26.20
2024-01-01T07:00:35.939Z,24.80
2024-01-01T07:03:04.961Z,17.90
2024-01-01T07:05:35.653Z,15.20
2024-01-01T07:08:05.657Z,17.40
2024-01-01T07:10:34.502Z,16.60
2024-01-01T07:13:03.036Z,20.70
2024-01-01T07:15:31.450Z,20.40
2024-01-01T07:18:01.733Z,25.70
2024-01-01T07:20:30.833Z,16.80
2024-01-01T07:22:59.269Z,19.60
2024-01-01T07:25:27.995Z,19.00
2024-01-01T07:27:56.390Z,19.50
2024-01-01T07:30:24.994Z,21.10
2024-01-01T07:32:53.461Z,20.80
2024-01-01T07:35:21.976Z,23.90
2024-01-01T07:37:50.478Z,20.40
2024-01-01T07:40:19.206Z,18.80
2024-01-01T07:42:47.610Z,19.90
2024-01-01T07:45:16.222Z,18.10
2024-01-01T07:47:44.627Z,18.50
2024-01-01T07:50:13.087Z,21.40
2024-01-01T07:52:41.551Z,20.80
2024-01-01T07:55:12.230Z,19.60
2024-01-01T07:57:41.163Z,18.10
2024-01-01T08:00:11.322Z,18.20
2024-01-01T08:02:40.169Z,19.80
2024-01-01T08:05:08.735Z,17.50
2024-01-01T08:07:37.740Z,17.80
2024-01-01T08:10:06.892Z,13.80
2024-01-01T08:12:35.260Z,21.50
2024-01-01T08:15:04.585Z,22.80
2024-01-01T08:17:33.261Z,15.30
2024-01-01T08:20:01.795Z,10.70
2024-01-01T08:22:30.299Z,14.40
2024-01-01T08:24:58.894Z,19.10
2024-01-01T08:27:27.228Z,21.20
2024-01-01T08:29:55.713Z,16.60
2024-01-01T08:32:24.079Z,20.30
2024-01-01T08:34:52.564Z,20.50
2024-01-01T08:37:20.931Z,19.30
2024-01-01T08:39:49.540Z,19.20
2024-01-01T08:42:18.033Z,12.90
2024-01-01T08:44:46.525Z,12.60
2024-01-01T08:47:16.867Z,18.20
2024-01-01T08:49:45.746Z,18.70
2024-01-01T08:52:14.203Z,16.90
2024-01-01T08:54:42.603Z,19.40
2024-01-01T08:57:10.977Z,17.90
2024-01-01T08:59:42.773Z,17.40
2024-01-01T09:02:11.418Z,17.70
2024-01-01T09:04:40.009Z,23.50
2024-01-01T09:07:08.622Z,21.90
2024-01-01T09:09:38.452Z,20.50
2024-01-01T09:12:07.646Z,18.10
2024-01-01T09:14:37.830Z,20.70
2024-01-01T09:17:09.128Z,18.70
2024-01-01T09:19:39.133Z,16.40
2024-01-01T09:22:09.694Z,16.10
2024-01-01T09:24:38.199Z,15.70
2024-01-01T09:27:06.694Z,16.50
2024-01-01T09:29:35.139Z,19.50
2024-01-01T09:32:04.731Z,18.50
2024-01-01T09:34:33.213Z,16.10
2024-01-01T09:37:04.008Z,19.60
2024-01-01T09:39:33.084Z,18.30
2024-01-01T09:42:05.745Z,19.70
2024-01-01T09:44:34.220Z,20.60
2024-01-01T09:47:02.768Z,17.80
2024-01-01T09:49:31.296Z,19.70
2024-01-01T09:51:59.747Z,18.90
2024-01-01T09:54:28.241Z,18.40
2024-01-01T09:56:56.874Z,21.50
2024-01-01T09:59:39.321Z,16.80
2024-01-01T10:02:10.583Z,17.00
2024-01-01T10:04:39.185Z,19.90
2024-01-01T10:07:08.062Z,19.70
2024-01-01T10:09:53.333Z,17.90
2024-01-01T10:12:24.149Z,14.50
2024-01-01T10:14:59.597Z,16.50
2024-01-01T10:17:28.469Z,16.40
2024-01-01T10:20:01.575Z,18.90
2024-01-01T10:22:33.523Z,18.80
2024-01-01T10:25:16.981Z,17.60
2024-01-01T10:27:46.536Z,18.50
2024-01-01T10:30:15.074Z,17.40
2024-01-01T10:32:45.484Z,15.80
2024-01-01T10:35:16.994Z,14.30
2024-01-01T10:37:46.060Z,18.40
2024-01-01T10:40:18.651Z,20.10
2024-01-01T10:42:49.445Z,18.90
2024-01-01T10:45:18.187Z,16.20
2024-01-01T10:47:49.775Z,17.90
2024-01-01T10:50:40.718Z,19.10
2024-01-01T10:53:44.376Z,18.60
2024-01-01T10:56:26.673Z,19.00
2024-01-01T10:59:26.753Z,20.30
2024-01-01T11:01:56.448Z,19.80
2024-01-01T11:04:25.143Z,16.70
2024-01-01T11:06:54.007Z,16.60
2024-01-01T11:09:22.740Z,18.00
2024-01-01T11:11:56.410Z,18.30
2024-01-01T11:14:33.203Z,17.20
2024-01-01T11:17:08.497Z,17.50
2024-01-01T11:19:45.758Z,19.20
2024-01-01T11:22:30.933Z,16.50
2024-01-01T11:25:01.031Z,19.60
2024-01-01T11:27:48.011Z,17.30
2024-01-01T11:30:17.997Z,17.40
2024-01-01T11:32:46.424Z,19.00
2024-01-01T11:35:18.062Z,20.40
2024-01-01T11:37:47.452Z,19.40
2024-01-01T11:40:16.091Z,19.80
2024-01-01T11:42:44.729Z,20.50
2024-01-01T11:45:17.418Z,19.90
2024-01-01T11:47:47.788Z,20.50
2024-01-01T11:50:16.506Z,18.40
2024-01-01T11:52:45.199Z,22.30
2024-01-01T11:55:13.793Z,17.80
2024-01-01T11:57:44.267Z,19.20
2024-01-01T12:00:15.099Z,17.80
2024-01-01T12:02:43.809Z,17.20
2024-01-01T12:05:12.368Z,19.20
2024-01-01T12:07:41.100Z,19.30
2024-01-01T12:10:17.764Z,17.30
2024-01-01T12:12:46.672Z,17.70
2024-01-01T12:15:19.891Z,17.70
2024-01-01T12:17:52.319Z,19.20
2024-01-01T12:20:26.346Z,19.50
2024-01-01T12:23:12.788Z,21.20
2024-01-01T12:25:41.310Z,19.10
2024-01-01T12:28:10.698Z,18.50
2024-01-01T12:30:39.311Z,20.00
2024-01-01T12:33:10.227Z,18.90
2024-01-01T12:35:40.639Z,18.50
2024-01-01T12:38:09.115Z,21.20
2024-01-01T12:40:37.510Z,20.10
2024-01-01T12:43:06.851Z,18.70
2024-01-01T12:45:35.810Z,20.80
2024-01-01T12:48:05.601Z,22.20
2024-01-01T12:50:34.304Z,24.10
2024-01-01T12:53:02.955Z,22.20
2024-01-01T12:55:31.490Z,22.00
2024-01-01T12:57:59.938Z,19.20
2024-01-01T13:00:28.703Z,22.60
2024-01-01T13:02:57.233Z,23.00
2024-01-01T13:05:25.716Z,23.20
2024-01-01T13:07:54.411Z,24.00
2024-01-01T13:10:23.445Z,22.70
2024-01-01T13:12:51.963Z,24.00
2024-01-01T13:15:21.160Z,23.20
2024-01-01T13:17:49.842Z,22.20
2024-01-01T13:20:18.560Z,26.40
2024-01-01T13:22:47.087Z,23.70
2024-01-01T13:25:15.664Z,26.80
2024-01-01T13:27:45.184Z,25.20
2024-01-01T13:30:14.317Z,24.60
2024-01-01T13:32:43.302Z,24.80
2024-01-01T13:35:11.861Z,26.10
2024-01-01T13:37:40.235Z,29.60
2024-01-01T13:40:10.162Z,24.30
2024-01-01T13:42:38.581Z,25.00
2024-01-01T13:45:09.472Z,26.90
2024-01-01T13:47:38.148Z,28.60
2024-01-01T13:50:08.713Z,26.00
2024-01-01T13:52:37.609Z,24.00
2024-01-01T13:55:06.657Z,26.10
2024-01-01T13:57:35.238Z,25.10
2024-01-01T14:00:06.544Z,29.10
2024-01-01T14:02:35.374Z,28.30
2024-01-01T14:05:07.261Z,27.50
2024-01-01T14:07:36.892Z,26.00
2024-01-01T14:10:06.209Z,25.40
2024-01-01T14:12:34.622Z,27.10
2024-01-01T14:15:03.985Z,27.70
2024-01-01T14:17:32.453Z,26.90
2024-01-01T14:20:01.431Z,28.90
2024-01-01T14:22:31.875Z,28.20
2024-01-01T14:25:01.044Z,28.00
2024-01-01T14:27:29.519Z,26.10
2024-01-01T14:29:58.134Z,26.00
2024-01-01T14:32:29.435Z,24.20
2024-01-01T14:34:58.293Z,27.40
2024-01-01T14:37:27.311Z,27.90
2024-01-01T14:39:55.982Z,28.00
2024-01-01T14:42:24.450Z,26.80
2024-01-01T14:44:52.857Z,23.90
2024-01-01T14:47:21.486Z,23.90
2024-01-01T14:49:51.165Z,27.40
2024-01-01T14:52:19.777Z,25.50
2024-01-01T14:54:48.306Z,27.80
2024-01-01T14:57:16.760Z,28.20
2024-01-01T14:59:45.138Z,30.50
2024-01-01T15:02:13.710Z,28.30
2024-01-01T15:04:44.719Z,23.90
2024-01-01T15:07:13.348Z,30.90
2024-01-01T15:09:42.289Z,25.60
2024-01-01T15:12:11.009Z,25.00
2024-01-01T15:14:39.378Z,29.70
2024-01-01T15:17:08.073Z,27.00
2024-01-01T15:19:37.308Z,31.90
2024-01-01T15:22:05.719Z,30.30
2024-01-01T15:24:34.169Z,30.30
2024-01-01T15:27:05.604Z,28.60
2024-01-01T15:29:34.094Z,26.20
2024-01-01T15:32:02.516Z,27.50
2024-01-01T15:34:31.371Z,31.10
2024-01-01T15:36:59.741Z,30.40
2024-01-01T15:39:28.165Z,34.10
2024-01-01T15:41:56.639Z,26.60
2024-01-01T15:44:25.469Z,25.30
2024-01-01T15:46:54.017Z,30.40
2024-01-01T15:49:22.635Z,33.90
2024-01-01T15:51:51.311Z,31.60
2024-01-01T15:54:19.721Z,30.90
2024-01-01T15:56:50.632Z,25.10
2024-01-01T15:59:19.423Z,27.10
2024-01-01T16:01:47.819Z,30.70
2024-01-01T16:04:16.331Z,30.60
2024-01-01T16:06:45.300Z,28.40
2024-01-01T16:09:13.702Z,26.20
2024-01-01T16:11:42.268Z,28.70
2024-01-01T16:14:10.753Z,24.60
2024-01-01T16:16:39.201Z,29.80
2024-01-01T16:19:14.284Z,30.00
2024-01-01T16:21:50.536Z,30.00
2024-01-01T16:24:19.106Z,33.70
2024-01-01T16:26:49.899Z,31.00
2024-01-01T16:29:18.492Z,30.90
2024-01-01T16:31:47.025Z,27.00
2024-01-01T16:34:16.295Z,25.50
2024-01-01T16:36:55.934Z,25.70
2024-01-01T16:39:24.507Z,22.50
2024-01-01T16:41:53.978Z,23.20
2024-01-01T16:44:22.787Z,29.50
2024-01-01T16:46:51.490Z,28.60
2024-01-01T16:49:20.033Z,30.80
2024-01-01T16:51:51.156Z,34.10
2024-01-01T16:54:19.632Z,29.80
2024-01-01T16:56:48.326Z,32.00
2024-01-01T16:59:17.031Z,26.70
2024-01-01T17:01:46.794Z,25.00
2024-01-01T17:04:15.346Z,28.30
2024-01-01T17:06:47.470Z,31.40
2024-01-01T17:09:16.237Z,28.10
2024-01-01T17:11:47.115Z,23.30
2024-01-01T17:14:16.278Z,25.80
2024-01-01T17:16:45.046Z,30.50
2024-01-01T17:19:13.523Z,29.70
2024-01-01T17:21:44.429Z,29.80
2024-01-01T17:24:13.288Z,28.70
2024-01-01T17:26:41.718Z,28.60
2024-01-01T17:29:10.241Z,27.80
2024-01-01T17:31:39.641Z,28.70
2024-01-01T17:34:08.223Z,28.00
2024-01-01T17:36:36.617Z,29.20
2024-01-01T17:39:05.118Z,27.30
2024-01-01T17:41:35.306Z,27.70
2024-01-01T17:44:05.600Z,25.00
2024-01-01T17:46:34.039Z,29.00
2024-01-01T17:49:02.924Z,24.20
2024-01-01T17:51:31.460Z,27.50
2024-01-01T17:53:59.891Z,23.00
2024-01-01T17:56:28.357Z,22.50
2024-01-01T17:58:56.842Z,27.80
2024-01-01T18:01:25.478Z,25.50
2024-01-01T18:03:53.855Z,22.00
2024-01-01T18:06:22.555Z,19.50
2024-01-01T18:08:51.032Z,26.00
2024-01-01T18:11:20.630Z,20.20
2024-01-01T18:13:49.486Z,21.00
2024-01-01T18:16:18.543Z,22.20
2024-01-01T18:18:47.226Z,21.00
2024-01-01T18:21:16.131Z,20.30
2024-01-01T18:23:44.548Z,22.00
2024-01-01T18:26:17.340Z,23.00
2024-01-01T18:28:46.082Z,24.30
2024-01-01T18:31:20.968Z,25.10
2024-01-01T18:33:49.593Z,22.80
2024-01-01T18:36:19.545Z,23.90
2024-01-01T18:38:48.332Z,24.20
2024-01-01T18:41:17.545Z,22.40
2024-01-01T18:43:48.116Z,19.50
2024-01-01T18:46:16.521Z,20.10
2024-01-01T18:48:45.077Z,21.00
2024-01-01T18:51:14.012Z,17.50
2024-01-01T18:53:42.604Z,16.80
2024-01-01T18:56:11.185Z,20.40
2024-01-01T18:58:43.140Z,18.50
2024-01-01T19:01:11.801Z,23.80
2024-01-01T19:03:40.235Z,17.80
2024-01-01T19:06:15.808Z,16.00
2024-01-01T19:08:46.047Z,16.00
2024-01-01T19:11:14.663Z,17.40
2024-01-01T19:13:43.120Z,20.80
2024-01-01T19:16:20.703Z,24.00
2024-01-01T19:18:49.694Z,21.90
2024-01-01T19:21:21.403Z,25.50
2024-01-01T19:23:50.770Z,24.10
2024-01-01T19:26:20.311Z,19.90
2024-01-01T19:28:48.807Z,16.60
2024-01-01T19:31:17.485Z,20.00
2024-01-01T19:33:46.074Z,20.50
2024-01-01T19:36:15.809Z,19.30
2024-01-01T19:38:44.292Z,18.70
2024-01-01T19:41:12.791Z,20.10
2024-01-01T19:43:41.237Z,19.20
2024-01-01T19:46:18.444Z,18.30
2024-01-01T19:48:49.014Z,17.00
2024-01-01T19:51:17.516Z,17.70
2024-01-01T19:53:45.953Z,16.70
2024-01-01T19:56:22.477Z,13.20
2024-01-01T19:58:51.000Z,10.00
2024-01-01T20:01:20.359Z,8.50
2024-01-01T20:03:48.824Z,8.90
2024-01-01T20:06:17.478Z,7.20
2024-01-01T20:08:46.024Z,9.80
2024-01-01T20:11:40.497Z,8.80
2024-01-01T20:14:11.940Z,9.30
2024-01-01T20:16:40.514Z,10.60
2024-01-01T20:19:12.991Z,11.00
2024-01-01T20:21:41.430Z,9.90
2024-01-01T20:24:10.841Z,6.30
2024-01-01T20:26:39.679Z,9.10
2024-01-01T20:29:08.156Z,9.70
2024-01-01T20:31:36.778Z,8.30
2024-01-01T20:34:05.409Z,6.50
2024-01-01T20:36:36.281Z,7.50
2024-01-01T20:39:07.408Z,7.50
2024-01-01T20:41:36.632Z,9.80
2024-01-01T20:44:09.453Z,8.80
2024-01-01T20:46:39.056Z,7.70
2024-01-01T20:49:08.099Z,9.40
2024-01-01T20:51:36.648Z,8.20
2024-01-01T20:54:05.152Z,6.70
2024-01-01T20:56:34.920Z,7.50
2024-01-01T20:59:04.269Z,7.90
2024-01-01T21:01:32.757Z,8.00
2024-01-01T21:04:01.147Z,9.10
2024-01-01T21:06:29.680Z,9.50
2024-01-01T21:08:58.488Z,6.60
2024-01-01T21:11:26.976Z,6.60
2024-01-01T21:13:55.555Z,7.60
2024-01-01T21:16:24.652Z,8.30
2024-01-01T21:18:53.238Z,8.50
2024-01-01T21:21:30.303Z,5.30
2024-01-01T21:24:02.253Z,5.60
2024-01-01T21:26:30.733Z,8.90
2024-01-01T21:28:59.222Z,7.60
2024-01-01T21:31:28.569Z,6.50
2024-01-01T21:33:57.078Z,6.20
2024-01-01T21:36:25.492Z,6.20
2024-01-01T21:38:53.932Z,6.40
2024-01-01T21:41:29.036Z,5.30
2024-01-01T21:43:59.924Z,4.80
2024-01-01T21:46:28.829Z,8.00
2024-01-01T21:48:57.506Z,7.50
2024-01-01T21:51:26.061Z,7.60
2024-01-01T21:53:54.406Z,9.00
2024-01-01T21:56:23.880Z,8.50
2024-01-01T21:58:53.387Z,6.60
2024-01-01T22:01:21.849Z,6.00
2024-01-01T22:03:50.474Z,7.40
2024-01-01T22:06:19.845Z,7.90
2024-01-01T22:08:48.443Z,6.10
2024-01-01T22:11:20.209Z,4.70
2024-01-01T22:13:49.796Z,4.60
2024-01-01T22:16:18.345Z,7.00
2024-01-01T22:18:46.943Z,6.70
2024-01-01T22:21:19.995Z,8.40
2024-01-01T22:23:48.633Z,7.60
2024-01-01T22:26:18.761Z,5.30
2024-01-01T22:28:47.269Z,6.20
2024-01-01T22:31:17.921Z,5.80
2024-01-01T22:33:46.960Z,7.00
2024-01-01T22:36:17.775Z,5.30
2024-01-01T22:38:46.161Z,5.80
2024-01-01T22:41:14.791Z,4.90
2024-01-01T22:43:43.365Z,7.00
2024-01-01T22:46:12.148Z,6.70
2024-01-01T22:48:41.410Z,5.90
2024-01-01T22:51:10.214Z,4.70
2024-01-01T22:53:38.712Z,5.40
2024-01-01T22:56:07.206Z,5.70
2024-01-01T22:58:35.818Z,5.40
2024-01-01T23:01:04.753Z,5.20
2024-01-01T23:03:33.152Z,5.90
2024-01-01T23:06:01.638Z,5.30
2024-01-01T23:08:30.376Z,5.40
2024-01-01T23:10:58.946Z,5.70
2024-01-01T23:13:27.908Z,8.20
2024-01-01T23:15:56.287Z,5.20
2024-01-01T23:18:24.732Z,4.90
2024-01-01T23:20:53.189Z,5.10
2024-01-01T23:23:21.604Z,6.20
2024-01-01T23:25:52.893Z,6.00
2024-01-01T23:28:22.713Z,6.00
2024-01-01T23:30:51.478Z,5.30
2024-01-01T23:33:20.374Z,4.60
2024-01-01T23:35:49.534Z,4.60
2024-01-01T23:38:18.594Z,4.90
2024-01-01T23:40:47.266Z,5.80
2024-01-01T23:43:15.787Z,4.90
2024-01-01T23:45:44.331Z,5.70
2024-01-01T23:48:12.996Z,4.70
2024-01-01T23:50:41.610Z,5.90
2024-01-01T23:53:10.427Z,6.80
2024-01-01T23:55:39.226Z,5.60
2024-01-01T23:58:07.927Z,5.10
